createdAt,value
2023-04-14T00:01:59.292Z,99585.78
2023-04-14T00:05:02.048Z,99579.25
2023-04-14T00:08:04.834Z,99574.31
2023-04-14T00:11:07.544Z,99583.59
2023-04-14T00:14:11.622Z,99593.69
2023-04-14T00:17:14.343Z,99588.34
2023-04-14T00:20:17.166Z,99578.63
2023-04-14T00:23:19.882Z,99583.38
2023-04-14T00:26:22.961Z,99578.97
2023-04-14T00:29:27.225Z,99579.97
2023-04-14T00:32:30.194Z,99588.09
2023-04-14T00:35:33.243Z,99582.88
2023-04-14T00:38:35.976Z,99589.38
2023-04-14T00:41:38.652Z,99587.81
2023-04-14T00:44:42.766Z,99589.75
2023-04-14T00:47:49.232Z,99587.13
2023-04-14T00:50:52.598Z,99599.44
2023-04-14T00:53:56.728Z,99591.06
2023-04-14T00:57:00.655Z,99604.81
2023-04-14T01:00:05.922Z,99598.19
2023-04-14T01:03:08.989Z,99596.09
2023-04-14T01:06:11.844Z,99603.97
2023-04-14T01:09:15.913Z,99601.03
2023-04-14T01:12:32.619Z,99604.44
2023-04-14T01:15:42.438Z,99607.19
2023-04-14T01:18:52.920Z,99609.94
2023-04-14T01:21:58.689Z,99612.53
2023-04-14T01:25:22.014Z,99622.53
2023-04-14T01:28:43.498Z,99612.72
2023-04-14T01:31:49.950Z,99612.63
2023-04-14T01:34:56.284Z,99616.19
2023-04-14T01:38:04.835Z,99627.88
2023-04-14T01:41:09.868Z,99614.28
2023-04-14T01:44:15.001Z,99620.44
2023-04-14T01:47:21.220Z,99616.81
2023-04-14T01:50:26.383Z,99616.09
2023-04-14T01:53:33.425Z,99619.69
2023-04-14T01:56:38.581Z,99618.69
2023-04-14T01:59:43.369Z,99623.13
2023-04-14T02:02:50.266Z,99623.19
2023-04-14T02:05:56.553Z,99617.94
2023-04-14T02:09:02.330Z,99627.75
2023-04-14T02:12:07.618Z,99618.22
2023-04-14T02:15:16.088Z,99625.06
2023-04-14T02:18:23.307Z,99623.28
2023-04-14T02:21:27.334Z,99625.28
2023-04-14T02:24:30.809Z,99625.28
2023-04-14T02:27:39.164Z,99622.72
2023-04-14T02:30:45.666Z,99616.69
2023-04-14T02:33:54.621Z,99623.56
2023-04-14T02:36:58.872Z,99636.03
2023-04-14T02:40:05.328Z,99631.47
2023-04-14T02:43:14.192Z,99627.88
2023-04-14T02:46:20.790Z,99632.50
2023-04-14T02:49:26.070Z,99637.13
2023-04-14T02:52:31.609Z,99638.19
2023-04-14T02:55:35.644Z,99633.03
2023-04-14T02:58:39.177Z,99634.97
2023-04-14T03:01:44.399Z,99633.09
2023-04-14T03:04:48.810Z,99629.59
2023-04-14T03:07:53.643Z,99636.75
2023-04-14T03:10:57.213Z,99632.28
2023-04-14T03:14:00.315Z,99621.41
2023-04-14T03:17:04.667Z,99627.81
2023-04-14T03:20:10.728Z,99625.09
2023-04-14T03:23:14.876Z,99613.63
2023-04-14T03:26:22.098Z,99616.53
2023-04-14T03:29:27.952Z,99614.94
2023-04-14T03:32:35.798Z,99619.34
2023-04-14T03:35:41.871Z,99630.00
2023-04-14T03:38:46.796Z,99630.84
2023-04-14T03:41:51.723Z,99627.03
2023-04-14T03:44:57.151Z,99627.31
2023-04-14T03:48:03.711Z,99630.94
2023-04-14T03:51:10.745Z,99631.28
2023-04-14T03:54:16.529Z,99653.53
2023-04-14T03:57:23.771Z,99641.16
2023-04-14T04:00:28.117Z,99648.59
2023-04-14T04:03:33.608Z,99632.97
2023-04-14T04:06:40.216Z,99643.50
2023-04-14T04:09:44.385Z,99653.41
2023-04-14T04:12:49.870Z,99657.03
2023-04-14T04:15:53.707Z,99655.31
2023-04-14T04:18:57.430Z,99655.16
2023-04-14T04:22:02.965Z,99661.38
2023-04-14T04:25:08.106Z,99657.75
2023-04-14T04:28:14.275Z,99659.63
2023-04-14T04:31:17.401Z,99655.22
2023-04-14T04:34:20.884Z,99650.00
2023-04-14T04:37:28.727Z,99661.88
2023-04-14T04:40:36.864Z,99663.75
2023-04-14T04:43:39.529Z,99665.59
2023-04-14T04:46:53.284Z,99658.75
2023-04-14T04:49:55.958Z,99656.75
2023-04-14T04:52:59.966Z,99661.34
2023-04-14T04:56:03.353Z,99673.00
2023-04-14T04:59:06.054Z,99663.94
2023-04-14T05:02:09.100Z,99667.44
2023-04-14T05:05:12.044Z,99656.59
2023-04-14T05:08:16.419Z,99669.06
2023-04-14T05:11:19.286Z,99661.88
2023-04-14T05:14:21.997Z,99659.09
2023-04-14T05:17:24.714Z,99664.25
2023-04-14T05:20:27.876Z,99664.84
2023-04-14T05:23:33.802Z,99666.75
2023-04-14T05:26:57.626Z,99671.72
2023-04-14T05:29:59.372Z,99666.19
2023-04-14T05:33:03.526Z,99670.63
2023-04-14T05:36:06.831Z,99663.66
2023-04-14T05:39:10.880Z,99676.78
2023-04-14T05:42:13.588Z,99676.78
2023-04-14T05:45:16.296Z,99677.66
2023-04-14T05:48:19.110Z,99672.44
2023-04-14T05:51:21.822Z,99672.22
2023-04-14T05:54:25.928Z,99676.41
2023-04-14T05:57:28.637Z,99668.19
2023-04-14T06:00:31.321Z,99672.31
2023-04-14T06:03:34.686Z,99681.19
2023-04-14T06:06:38.676Z,99674.72
2023-04-14T06:09:43.070Z,99686.25
2023-04-14T06:12:45.992Z,99684.31
2023-04-14T06:15:49.753Z,99693.94
2023-04-14T06:18:52.395Z,99695.44
2023-04-14T06:21:55.802Z,99699.72
2023-04-14T06:24:59.937Z,99699.59
2023-04-14T06:28:03.525Z,99696.72
2023-04-14T06:31:06.687Z,99693.84
2023-04-14T06:34:09.397Z,99702.00
2023-04-14T06:37:12.122Z,99713.00
2023-04-14T06:40:16.354Z,99705.09
2023-04-14T06:43:19.847Z,99703.22
2023-04-14T06:46:22.530Z,99710.84
2023-04-14T06:49:25.485Z,99714.22
2023-04-14T06:52:28.213Z,99713.16
2023-04-14T06:55:32.504Z,99706.47
2023-04-14T06:58:35.248Z,99705.28
2023-04-14T07:01:38.019Z,99702.19
2023-04-14T07:04:40.864Z,99700.91
2023-04-14T07:07:43.900Z,99681.41
2023-04-14T07:10:48.550Z,99682.28
2023-04-14T07:13:51.473Z,99674.06
2023-04-14T07:16:54.472Z,99666.69
2023-04-14T07:19:58.387Z,99660.94
2023-04-14T07:23:01.070Z,99660.94
2023-04-14T07:26:05.370Z,99655.69
2023-04-14T07:29:08.075Z,99653.03
2023-04-14T07:32:12.116Z,99642.72
2023-04-14T07:35:15.011Z,99639.22
2023-04-14T07:38:17.687Z,99635.00
2023-04-14T07:41:21.884Z,99630.97
2023-04-14T07:44:24.542Z,99613.97
2023-04-14T07:47:27.267Z,99622.75
2023-04-14T07:50:30.227Z,99620.13
2023-04-14T07:53:33.818Z,99600.72
2023-04-14T07:56:37.936Z,99611.88
2023-04-14T07:59:42.847Z,99620.81
2023-04-14T08:02:46.021Z,99612.16
2023-04-14T08:05:48.841Z,99609.41
2023-04-14T08:08:51.726Z,99619.06
2023-04-14T08:11:56.878Z,99607.75
2023-04-14T08:14:59.669Z,99617.03
2023-04-14T08:18:02.954Z,99611.66
2023-04-14T08:21:05.895Z,99613.34
2023-04-14T08:24:08.823Z,99617.78
2023-04-14T08:27:12.902Z,99603.16
2023-04-14T08:30:15.872Z,99611.91
2023-04-14T08:33:18.592Z,99611.63
2023-04-14T08:36:21.672Z,99612.88
2023-04-14T08:39:24.340Z,99601.47
2023-04-14T08:42:28.736Z,99595.53
2023-04-14T08:45:32.446Z,99593.22
2023-04-14T08:48:39.142Z,99589.09
2023-04-14T08:51:44.698Z,99590.41
2023-04-14T08:54:51.097Z,99581.00
2023-04-14T08:57:56.234Z,99579.63
2023-04-14T09:01:00.150Z,99578.28
2023-04-14T09:04:05.098Z,99576.72
2023-04-14T09:07:09.074Z,99570.66
2023-04-14T09:10:12.542Z,99574.53
2023-04-14T09:13:17.858Z,99564.75
2023-04-14T09:16:20.820Z,99558.47
2023-04-14T09:19:25.368Z,99564.94
2023-04-14T09:22:28.671Z,99552.38
2023-04-14T09:25:31.786Z,99541.59
2023-04-14T09:28:35.951Z,99551.59
2023-04-14T09:31:38.929Z,99541.88
2023-04-14T09:34:50.104Z,99528.69
2023-04-14T09:37:52.772Z,99530.56
2023-04-14T09:40:57.021Z,99529.13
2023-04-14T09:44:08.815Z,99515.19
2023-04-14T09:47:15.388Z,99517.91
2023-04-14T09:50:18.062Z,99523.06
2023-04-14T09:53:26.650Z,99515.00
2023-04-14T09:56:29.401Z,99506.88
2023-04-14T09:59:35.560Z,99514.44
2023-04-14T10:02:49.324Z,99522.75
2023-04-14T10:05:52.108Z,99515.00
2023-04-14T10:08:57.106Z,99494.22
2023-04-14T10:12:10.890Z,99488.41
2023-04-14T10:15:17.290Z,99490.47
2023-04-14T10:18:20.081Z,99484.94
2023-04-14T10:21:25.450Z,99479.59
2023-04-14T10:24:28.239Z,99485.63
2023-04-14T10:27:33.893Z,99483.75
2023-04-14T10:30:39.049Z,99473.44
2023-04-14T10:33:42.247Z,99469.91
2023-04-14T10:36:45.414Z,99459.75
2023-04-14T10:39:56.129Z,99457.28
2023-04-14T10:42:58.826Z,99449.50
2023-04-14T10:46:03.642Z,99443.56
2023-04-14T10:49:06.497Z,99433.88
2023-04-14T10:52:33.193Z,99436.03
2023-04-14T10:55:51.646Z,99414.91
2023-04-14T10:58:56.025Z,99428.81
2023-04-14T11:02:00.434Z,99424.47
2023-04-14T11:05:06.505Z,99416.16
2023-04-14T11:08:14.373Z,99400.66
2023-04-14T11:11:17.899Z,99394.81
2023-04-14T11:14:27.547Z,99393.63
2023-04-14T11:17:33.228Z,99388.34
2023-04-14T11:20:41.145Z,99384.69
2023-04-14T11:23:44.448Z,99370.47
2023-04-14T11:26:47.456Z,99361.44
2023-04-14T11:29:51.307Z,99361.97
2023-04-14T11:32:58.587Z,99356.16
2023-04-14T11:36:03.236Z,99344.22
2023-04-14T11:39:06.839Z,99362.06
2023-04-14T11:42:09.582Z,99349.91
2023-04-14T11:45:15.552Z,99342.84
2023-04-14T11:48:21.752Z,99329.31
2023-04-14T11:51:30.667Z,99343.97
2023-04-14T11:54:36.436Z,99345.66
2023-04-14T11:57:39.282Z,99351.25
2023-04-14T12:00:42.952Z,99347.72
2023-04-14T12:03:47.223Z,99353.91
2023-04-14T12:06:50.150Z,99331.22
2023-04-14T12:09:52.827Z,99337.63
2023-04-14T12:13:00.946Z,99334.00
2023-04-14T12:16:05.016Z,99327.63
2023-04-14T12:19:09.216Z,99329.47
2023-04-14T12:22:12.177Z,99327.09
2023-04-14T12:25:14.905Z,99311.41
2023-04-14T12:28:19.467Z,99313.41
2023-04-14T12:31:28.618Z,99305.16
2023-04-14T12:34:33.042Z,99302.06
2023-04-14T12:37:35.798Z,99301.59
2023-04-14T12:40:40.730Z,99311.38
2023-04-14T12:43:43.439Z,99304.34
2023-04-14T12:46:48.712Z,99293.53
2023-04-14T12:49:53.847Z,99286.34
2023-04-14T12:52:57.253Z,99285.78
2023-04-14T12:56:07.903Z,99284.81
2023-04-14T12:59:10.631Z,99281.50
2023-04-14T13:02:14.136Z,99274.63
2023-04-14T13:05:18.537Z,99280.75
2023-04-14T13:08:21.182Z,99275.19
2023-04-14T13:11:25.111Z,99266.41
2023-04-14T13:14:27.799Z,99252.88
2023-04-14T13:17:30.747Z,99260.56
2023-04-14T13:20:35.237Z,99247.81
2023-04-14T13:23:38.240Z,99257.50
2023-04-14T13:26:40.979Z,99271.50
2023-04-14T13:29:43.833Z,99264.34
2023-04-14T13:32:46.750Z,99259.75
2023-04-14T13:35:51.518Z,99255.88
2023-04-14T13:38:56.081Z,99260.06
2023-04-14T13:41:59.514Z,99237.38
2023-04-14T13:45:02.275Z,99234.09
2023-04-14T13:48:05.684Z,99231.63
2023-04-14T13:51:09.724Z,99227.44
2023-04-14T13:54:12.720Z,99230.94
2023-04-14T13:57:15.501Z,99231.50
2023-04-14T14:00:18.619Z,99211.41
2023-04-14T14:03:21.327Z,99203.59
2023-04-14T14:06:26.476Z,99206.75
2023-04-14T14:09:29.396Z,99205.09
2023-04-14T14:12:32.516Z,99192.13
2023-04-14T14:15:35.554Z,99182.88
2023-04-14T14:18:38.436Z,99187.69
2023-04-14T14:21:44.031Z,99186.53
2023-04-14T14:24:47.052Z,99183.63
2023-04-14T14:27:51.961Z,99185.22
2023-04-14T14:30:54.766Z,99185.00
2023-04-14T14:33:57.467Z,99198.34
2023-04-14T14:37:02.276Z,99194.69
2023-04-14T14:40:06.738Z,99196.13
2023-04-14T14:43:09.620Z,99190.38
2023-04-14T14:46:12.378Z,99193.50
2023-04-14T14:49:15.473Z,99193.25
2023-04-14T14:52:19.534Z,99187.31
2023-04-14T14:55:22.176Z,99188.13
2023-04-14T14:58:25.404Z,99186.09
2023-04-14T15:01:28.241Z,99188.78
2023-04-14T15:04:31.228Z,99195.53
2023-04-14T15:07:35.342Z,99203.16
2023-04-14T15:10:38.000Z,99211.06
2023-04-14T15:13:40.732Z,99205.38
2023-04-14T15:16:43.452Z,99216.38
2023-04-14T15:19:46.774Z,99219.53
2023-04-14T15:22:50.856Z,99228.34
2023-04-14T15:25:53.656Z,99207.28
2023-04-14T15:28:56.442Z,99232.63
2023-04-14T15:35:01.778Z,99246.13
2023-04-14T15:38:06.147Z,99240.19
2023-04-14T15:41:08.829Z,99242.78
2023-04-14T15:44:11.610Z,99240.31
2023-04-14T15:47:14.296Z,99238.84
2023-04-14T15:50:18.746Z,99237.84
2023-04-14T15:53:23.575Z,99240.19
2023-04-14T15:56:26.522Z,99231.16
2023-04-14T15:59:30.296Z,99242.06
2023-04-14T16:02:35.239Z,99233.00
2023-04-14T16:05:37.990Z,99226.19
2023-04-14T16:08:42.208Z,99241.06
2023-04-14T16:11:44.856Z,99233.38
2023-04-14T16:14:47.522Z,99231.66
2023-04-14T16:17:51.095Z,99232.81
2023-04-14T16:20:53.796Z,99227.16
2023-04-14T16:23:57.903Z,99234.63
2023-04-14T16:27:01.081Z,99227.16
2023-04-14T16:30:03.959Z,99231.38
2023-04-14T16:33:06.902Z,99234.09
2023-04-14T16:36:09.624Z,99236.59
2023-04-14T16:39:13.687Z,99228.66
2023-04-14T16:42:18.936Z,99231.72
2023-04-14T16:45:21.771Z,99219.41
2023-04-14T16:48:24.457Z,99221.59
2023-04-14T16:51:27.934Z,99229.00
2023-04-14T16:54:32.657Z,99228.13
2023-04-14T16:57:35.473Z,99226.50
2023-04-14T17:00:38.219Z,99230.97
2023-04-14T17:03:41.591Z,99229.63
2023-04-14T17:06:44.498Z,99229.41
2023-04-14T17:09:48.971Z,99226.94
2023-04-14T17:12:53.793Z,99227.41
2023-04-14T17:16:06.166Z,99237.09
2023-04-14T17:19:14.013Z,99235.06
2023-04-14T17:22:16.711Z,99250.41
2023-04-14T17:25:22.932Z,99262.22
2023-04-14T17:28:26.768Z,99267.56
2023-04-14T17:31:29.664Z,99260.34
2023-04-14T17:34:32.456Z,99265.44
2023-04-14T17:37:36.142Z,99266.19
2023-04-14T17:40:40.385Z,99268.41
2023-04-14T17:43:43.118Z,99266.25
2023-04-14T17:46:46.508Z,99277.06
2023-04-14T17:49:50.001Z,99279.03
2023-04-14T17:52:53.942Z,99274.28
2023-04-14T17:55:58.853Z,99285.06
2023-04-14T17:59:02.952Z,99287.00
2023-04-14T18:02:05.665Z,99284.97
2023-04-14T18:05:11.117Z,99275.72
2023-04-14T18:08:14.273Z,99284.66
2023-04-14T18:11:18.489Z,99286.16
2023-04-14T18:14:21.655Z,99293.47
2023-04-14T18:17:24.935Z,99299.19
2023-04-14T18:20:27.745Z,99297.16
2023-04-14T18:23:31.977Z,99298.00
2023-04-14T18:26:36.186Z,99308.47
2023-04-14T18:29:39.105Z,99312.19
2023-04-14T18:32:42.024Z,99322.78
2023-04-14T18:35:50.587Z,99313.13
2023-04-14T18:38:53.232Z,99328.00
2023-04-14T18:41:57.239Z,99322.28
2023-04-14T18:44:59.978Z,99326.34
2023-04-14T18:48:03.287Z,99329.78
2023-04-14T18:51:08.158Z,99333.84
2023-04-14T18:54:13.805Z,99339.75
2023-04-14T18:57:18.028Z,99340.25
2023-04-14T19:00:20.995Z,99344.09
2023-04-14T19:03:24.026Z,99350.94
2023-04-14T19:06:27.502Z,99352.41
2023-04-14T19:09:30.153Z,99350.03
2023-04-14T19:12:34.485Z,99348.88
2023-04-14T19:15:37.612Z,99349.22
2023-04-14T19:18:41.050Z,99358.66
2023-04-14T19:21:43.726Z,99365.50
2023-04-14T19:24:46.407Z,99358.72
2023-04-14T19:27:51.045Z,99369.03
2023-04-14T19:30:54.316Z,99371.22
2023-04-14T19:33:58.669Z,99375.13
2023-04-14T19:37:03.254Z,99371.03
2023-04-14T19:40:08.239Z,99373.16
2023-04-14T19:43:13.832Z,99373.75
2023-04-14T19:46:18.025Z,99379.59
2023-04-14T19:49:20.872Z,99370.97
2023-04-14T19:52:23.645Z,99370.44
2023-04-14T19:55:26.349Z,99380.69
2023-04-14T19:58:31.384Z,99379.38
2023-04-14T20:01:34.404Z,99377.19
2023-04-14T20:04:37.736Z,99380.13
2023-04-14T20:07:40.726Z,99388.50
2023-04-14T20:10:43.576Z,99383.44
2023-04-14T20:13:47.864Z,99390.13
2023-04-14T20:16:51.497Z,99384.25
2023-04-14T20:19:54.760Z,99391.56
2023-04-14T20:22:59.080Z,99388.22
2023-04-14T20:26:02.295Z,99384.09
2023-04-14T20:29:06.513Z,99376.31
2023-04-14T20:32:09.435Z,99375.59
2023-04-14T20:35:13.059Z,99374.97
2023-04-14T20:38:16.202Z,99382.53
2023-04-14T20:41:19.270Z,99383.75
2023-04-14T20:44:23.281Z,99392.94
2023-04-14T20:47:26.707Z,99396.75
2023-04-14T20:50:29.696Z,99372.47
2023-04-14T20:53:32.355Z,99385.56
2023-04-14T20:56:35.055Z,99396.81
2023-04-14T20:59:39.366Z,99399.72
2023-04-14T21:02:43.504Z,99397.41
2023-04-14T21:05:47.369Z,99406.78
2023-04-14T21:08:50.081Z,99405.19
2023-04-14T21:12:15.258Z,99415.53
2023-04-14T21:15:48.555Z,99425.03
2023-04-14T21:18:40.743Z,99418.00
2023-04-14T21:21:43.396Z,99417.69
2023-04-14T21:24:48.530Z,99418.09
2023-04-14T21:27:51.383Z,99420.34
2023-04-14T21:31:00.432Z,99420.81
2023-04-14T21:34:04.654Z,99427.03
2023-04-14T21:37:07.456Z,99421.94
2023-04-14T21:40:11.191Z,99417.59
2023-04-14T21:43:13.821Z,99424.88
2023-04-14T21:46:17.944Z,99425.00
2023-04-14T21:49:20.877Z,99428.91
2023-04-14T21:52:23.521Z,99432.72
2023-04-14T21:55:26.436Z,99430.81
2023-04-14T21:58:29.080Z,99429.22
2023-04-14T22:01:33.794Z,99426.94
2023-04-14T22:04:37.377Z,99431.44
2023-04-14T22:07:40.397Z,99433.38
2023-04-14T22:10:43.437Z,99431.66
2023-04-14T22:13:46.579Z,99428.16
2023-04-14T22:16:50.649Z,99432.78
2023-04-14T22:19:53.758Z,99428.56
2023-04-14T22:22:57.131Z,99435.16
2023-04-14T22:26:01.023Z,99434.34
2023-04-14T22:29:04.381Z,99431.94
2023-04-14T22:32:08.764Z,99436.63
2023-04-14T22:35:11.516Z,99435.97
2023-04-14T22:38:16.744Z,99440.41
2023-04-14T22:41:19.782Z,99437.66
2023-04-14T22:44:22.465Z,99434.97
2023-04-14T22:47:26.893Z,99442.97
2023-04-14T22:50:30.810Z,99437.66
2023-04-14T22:53:33.509Z,99436.91
2023-04-14T22:56:37.162Z,99438.88
2023-04-14T22:59:39.803Z,99438.00
2023-04-14T23:02:46.618Z,99437.19
2023-04-14T23:05:50.512Z,99441.69
2023-04-14T23:08:53.208Z,99442.69
2023-04-14T23:11:58.105Z,99448.06
2023-04-14T23:15:02.333Z,99451.84
2023-04-14T23:18:06.524Z,99439.44
2023-04-14T23:21:10.045Z,99439.44
2023-04-14T23:24:13.938Z,99443.88
2023-04-14T23:27:19.528Z,99437.56
2023-04-14T23:30:22.226Z,99433.94
2023-04-14T23:33:27.411Z,99435.53
2023-04-14T23:36:30.310Z,99439.06
2023-04-14T23:39:33.335Z,99417.91
2023-04-14T23:42:36.003Z,99432.72
2023-04-14T23:45:38.821Z,99438.13
2023-04-14T23:48:42.973Z,99429.22
2023-04-14T23:51:46.327Z,99425.59
2023-04-14T23:54:48.994Z,99416.53
